sensor_id;sensor_type;location;lat;lon;timestamp;pressure;altitude;pressure_sealevel;temperature;humidity
22653;BME280;11493;43.344;26.226;2023-06-14T00:01:37;98974.00;;;17.11;100.00
22653;BME280;11493;43.344;26.226;2023-06-14T00:04:05;98983.94;;;17.12;100.00
22653;BME280;11493;43.344;26.226;2023-06-14T00:06:36;98983.50;;;17.09;100.00
22653;BME280;11493;43.344;26.226;2023-06-14T00:09:03;98991.00;;;17.05;100.00
22653;BME280;11493;43.344;26.226;2023-06-14T00:11:32;98982.38;;;16.91;100.00
22653;BME280;11493;43.344;26.226;2023-06-14T00:13:59;98985.44;;;16.86;100.00
22653;BME280;11493;43.344;26.226;2023-06-14T00:16:26;98982.59;;;16.83;100.00
22653;BME280;11493;43.344;26.226;2023-06-14T00:18:53;98987.63;;;16.77;100.00
22653;BME280;11493;43.344;26.226;2023-06-14T00:21:21;98980.31;;;16.69;100.00
22653;BME280;11493;43.344;26.226;2023-06-14T00:23:48;98978.50;;;16.61;100.00
22653;BME280;11493;43.344;26.226;2023-06-14T00:26:21;98987.03;;;16.68;100.00
22653;BME280;11493;43.344;26.226;2023-06-14T00:28:49;98983.88;;;16.69;100.00
22653;BME280;11493;43.344;26.226;2023-06-14T00:31:16;98977.78;;;16.64;100.00
22653;BME280;11493;43.344;26.226;2023-06-14T00:33:44;98990.41;;;16.61;100.00
22653;BME280;11493;43.344;26.226;2023-06-14T00:36:11;98981.13;;;16.54;100.00
22653;BME280;11493;43.344;26.226;2023-06-14T00:38:38;98960.91;;;16.37;100.00
22653;BME280;11493;43.344;26.226;2023-06-14T00:41:08;98961.28;;;16.36;100.00
22653;BME280;11493;43.344;26.226;2023-06-14T00:43:35;98973.19;;;16.36;100.00
22653;BME280;11493;43.344;26.226;2023-06-14T00:46:02;98961.16;;;16.29;100.00
22653;BME280;11493;43.344;26.226;2023-06-14T00:48:29;98968.59;;;16.25;100.00
22653;BME280;11493;43.344;26.226;2023-06-14T00:50:59;98962.88;;;16.18;100.00
22653;BME280;11493;43.344;26.226;2023-06-14T00:53:31;98969.31;;;16.22;100.00
22653;BME280;11493;43.344;26.226;2023-06-14T00:56:01;98967.97;;;16.16;100.00
22653;BME280;11493;43.344;26.226;2023-06-14T00:58:29;98966.63;;;16.09;100.00
22653;BME280;11493;43.344;26.226;2023-06-14T01:00:56;98959.56;;;15.96;100.00
22653;BME280;11493;43.344;26.226;2023-06-14T01:03:27;98968.34;;;15.98;100.00
22653;BME280;11493;43.344;26.226;2023-06-14T01:06:19;98970.50;;;15.89;100.00
22653;BME280;11493;43.344;26.226;2023-06-14T01:11:38;98975.97;;;15.86;100.00
22653;BME280;11493;43.344;26.226;2023-06-14T01:14:08;98977.41;;;15.80;100.00
22653;BME280;11493;43.344;26.226;2023-06-14T01:16:38;98953.13;;;15.61;100.00
22653;BME280;11493;43.344;26.226;2023-06-14T01:19:10;98959.59;;;15.65;100.00
22653;BME280;11493;43.344;26.226;2023-06-14T01:21:40;98966.56;;;15.74;100.00
22653;BME280;11493;43.344;26.226;2023-06-14T01:24:09;98969.78;;;15.76;100.00
22653;BME280;11493;43.344;26.226;2023-06-14T01:26:38;98970.22;;;15.78;100.00
22653;BME280;11493;43.344;26.226;2023-06-14T01:29:14;98966.75;;;15.66;100.00
22653;BME280;11493;43.344;26.226;2023-06-14T01:31:45;98970.59;;;15.61;100.00
22653;BME280;11493;43.344;26.226;2023-06-14T01:34:12;98982.56;;;15.65;100.00
22653;BME280;11493;43.344;26.226;2023-06-14T01:36:41;98980.81;;;15.57;100.00
22653;BME280;11493;43.344;26.226;2023-06-14T01:39:13;98988.47;;;15.48;100.00
22653;BME280;11493;43.344;26.226;2023-06-14T01:41:44;98981.56;;;15.42;100.00
22653;BME280;11493;43.344;26.226;2023-06-14T01:44:13;98967.41;;;15.31;100.00
22653;BME280;11493;43.344;26.226;2023-06-14T01:46:43;98981.09;;;15.40;100.00
22653;BME280;11493;43.344;26.226;2023-06-14T01:49:11;98979.94;;;15.41;100.00
22653;BME280;11493;43.344;26.226;2023-06-14T01:51:39;98976.47;;;15.44;100.00
22653;BME280;11493;43.344;26.226;2023-06-14T01:54:07;98970.13;;;15.43;100.00
22653;BME280;11493;43.344;26.226;2023-06-14T01:56:34;98972.28;;;15.50;100.00
22653;BME280;11493;43.344;26.226;2023-06-14T01:59:01;98987.22;;;15.61;100.00
22653;BME280;11493;43.344;26.226;2023-06-14T02:01:29;98989.56;;;15.59;100.00
22653;BME280;11493;43.344;26.226;2023-06-14T02:03:57;98975.84;;;15.51;100.00
22653;BME280;11493;43.344;26.226;2023-06-14T02:06:26;98992.03;;;15.49;100.00
22653;BME280;11493;43.344;26.226;2023-06-14T02:08:53;98989.88;;;15.42;100.00
22653;BME280;11493;43.344;26.226;2023-06-14T02:11:21;98989.06;;;15.41;100.00
22653;BME280;11493;43.344;26.226;2023-06-14T02:13:49;98976.97;;;15.34;100.00
22653;BME280;11493;43.344;26.226;2023-06-14T02:16:17;98977.06;;;15.37;100.00
22653;BME280;11493;43.344;26.226;2023-06-14T02:18:44;98988.34;;;15.44;100.00
22653;BME280;11493;43.344;26.226;2023-06-14T02:21:12;98993.09;;;15.44;100.00
22653;BME280;11493;43.344;26.226;2023-06-14T02:23:39;98989.88;;;15.42;100.00
22653;BME280;11493;43.344;26.226;2023-06-14T02:26:06;98993.72;;;15.37;100.00
22653;BME280;11493;43.344;26.226;2023-06-14T02:28:34;99006.25;;;15.47;100.00
22653;BME280;11493;43.344;26.226;2023-06-14T02:31:02;98993.34;;;15.39;100.00
22653;BME280;11493;43.344;26.226;2023-06-14T02:33:29;98986.97;;;15.23;100.00
22653;BME280;11493;43.344;26.226;2023-06-14T02:35:56;98989.28;;;15.21;100.00
22653;BME280;11493;43.344;26.226;2023-06-14T02:38:26;98996.34;;;15.18;100.00
22653;BME280;11493;43.344;26.226;2023-06-14T02:40:54;99003.28;;;15.12;100.00
22653;BME280;11493;43.344;26.226;2023-06-14T02:43:21;98998.81;;;15.07;100.00
22653;BME280;11493;43.344;26.226;2023-06-14T02:45:48;98999.50;;;15.04;100.00
22653;BME280;11493;43.344;26.226;2023-06-14T02:48:15;99010.69;;;15.08;100.00
22653;BME280;11493;43.344;26.226;2023-06-14T02:50:42;99007.81;;;15.04;100.00
22653;BME280;11493;43.344;26.226;2023-06-14T02:53:09;99015.88;;;15.09;100.00
22653;BME280;11493;43.344;26.226;2023-06-14T02:55:37;99022.13;;;15.06;100.00
22653;BME280;11493;43.344;26.226;2023-06-14T02:58:07;99020.53;;;15.05;100.00
22653;BME280;11493;43.344;26.226;2023-06-14T03:00:34;99020.88;;;15.04;100.00
22653;BME280;11493;43.344;26.226;2023-06-14T03:03:03;99015.69;;;15.02;100.00
22653;BME280;11493;43.344;26.226;2023-06-14T03:05:32;99030.66;;;15.13;100.00
22653;BME280;11493;43.344;26.226;2023-06-14T03:07:59;99030.19;;;15.11;100.00
22653;BME280;11493;43.344;26.226;2023-06-14T03:10:26;99013.56;;;15.11;100.00
22653;BME280;11493;43.344;26.226;2023-06-14T03:12:57;99018.88;;;15.17;100.00
22653;BME280;11493;43.344;26.226;2023-06-14T03:15:25;99024.41;;;15.17;100.00
22653;BME280;11493;43.344;26.226;2023-06-14T03:17:52;99035.13;;;15.18;100.00
22653;BME280;11493;43.344;26.226;2023-06-14T03:20:20;99022.44;;;15.17;100.00
22653;BME280;11493;43.344;26.226;2023-06-14T03:22:48;99038.47;;;15.24;100.00
22653;BME280;11493;43.344;26.226;2023-06-14T03:25:15;99039.16;;;15.21;100.00
22653;BME280;11493;43.344;26.226;2023-06-14T03:27:45;99042.50;;;15.26;100.00
22653;BME280;11493;43.344;26.226;2023-06-14T03:30:12;99039.97;;;15.21;100.00
22653;BME280;11493;43.344;26.226;2023-06-14T03:32:42;99032.81;;;15.20;100.00
22653;BME280;11493;43.344;26.226;2023-06-14T03:35:09;99048.94;;;15.30;100.00
22653;BME280;11493;43.344;26.226;2023-06-14T03:37:46;99035.44;;;15.29;100.00
22653;BME280;11493;43.344;26.226;2023-06-14T03:40:15;99036.00;;;15.34;100.00
22653;BME280;11493;43.344;26.226;2023-06-14T03:42:47;99050.06;;;15.41;100.00
22653;BME280;11493;43.344;26.226;2023-06-14T03:45:14;99045.41;;;15.45;100.00
22653;BME280;11493;43.344;26.226;2023-06-14T03:47:41;99055.91;;;15.52;100.00
22653;BME280;11493;43.344;26.226;2023-06-14T03:50:09;99040.88;;;15.53;100.00
22653;BME280;11493;43.344;26.226;2023-06-14T03:52:38;99041.34;;;15.55;100.00
22653;BME280;11493;43.344;26.226;2023-06-14T03:55:05;99047.44;;;15.61;100.00
22653;BME280;11493;43.344;26.226;2023-06-14T03:57:37;99021.66;;;15.60;100.00
22653;BME280;11493;43.344;26.226;2023-06-14T04:00:09;99047.84;;;15.91;100.00
22653;BME280;11493;43.344;26.226;2023-06-14T04:02:41;99042.09;;;15.99;100.00
22653;BME280;11493;43.344;26.226;2023-06-14T04:05:11;99054.09;;;16.03;100.00
22653;BME280;11493;43.344;26.226;2023-06-14T04:07:43;99053.47;;;16.10;100.00
22653;BME280;11493;43.344;26.226;2023-06-14T04:10:12;99057.34;;;16.21;100.00
22653;BME280;11493;43.344;26.226;2023-06-14T04:12:40;99061.53;;;16.31;100.00
22653;BME280;11493;43.344;26.226;2023-06-14T04:15:10;99052.28;;;16.42;100.00
22653;BME280;11493;43.344;26.226;2023-06-14T04:17:50;99048.84;;;16.49;100.00
22653;BME280;11493;43.344;26.226;2023-06-14T04:20:20;99061.94;;;16.64;100.00
22653;BME280;11493;43.344;26.226;2023-06-14T04:22:48;99061.13;;;16.64;100.00
22653;BME280;11493;43.344;26.226;2023-06-14T04:25:16;99064.38;;;16.66;100.00
22653;BME280;11493;43.344;26.226;2023-06-14T04:27:50;99063.66;;;16.69;100.00
22653;BME280;11493;43.344;26.226;2023-06-14T04:30:20;99045.38;;;16.68;100.00
22653;BME280;11493;43.344;26.226;2023-06-14T04:32:49;99044.97;;;16.85;100.00
22653;BME280;11493;43.344;26.226;2023-06-14T04:35:21;99067.22;;;17.04;100.00
22653;BME280;11493;43.344;26.226;2023-06-14T04:37:50;99075.69;;;17.12;100.00
22653;BME280;11493;43.344;26.226;2023-06-14T04:40:18;99060.97;;;17.11;100.00
22653;BME280;11493;43.344;26.226;2023-06-14T04:42:45;99076.94;;;17.33;100.00
22653;BME280;11493;43.344;26.226;2023-06-14T04:45:15;99076.50;;;17.51;100.00
22653;BME280;11493;43.344;26.226;2023-06-14T04:47:44;99079.44;;;17.77;100.00
22653;BME280;11493;43.344;26.226;2023-06-14T04:50:11;99087.53;;;17.86;100.00
22653;BME280;11493;43.344;26.226;2023-06-14T04:52:39;99086.31;;;18.06;100.00
22653;BME280;11493;43.344;26.226;2023-06-14T04:55:09;99088.84;;;18.15;100.00
22653;BME280;11493;43.344;26.226;2023-06-14T04:57:36;99087.88;;;18.26;100.00
22653;BME280;11493;43.344;26.226;2023-06-14T05:00:08;99084.34;;;18.29;100.00
22653;BME280;11493;43.344;26.226;2023-06-14T05:02:39;99092.00;;;18.36;100.00
22653;BME280;11493;43.344;26.226;2023-06-14T05:05:08;99088.25;;;18.25;100.00
22653;BME280;11493;43.344;26.226;2023-06-14T05:07:35;99087.81;;;18.23;100.00
22653;BME280;11493;43.344;26.226;2023-06-14T05:10:06;99093.13;;;18.31;100.00
22653;BME280;11493;43.344;26.226;2023-06-14T05:12:34;99090.03;;;18.36;100.00
22653;BME280;11493;43.344;26.226;2023-06-14T05:15:03;99094.19;;;18.46;100.00
22653;BME280;11493;43.344;26.226;2023-06-14T05:17:31;99103.47;;;18.54;100.00
22653;BME280;11493;43.344;26.226;2023-06-14T05:19:58;99096.06;;;18.65;100.00
22653;BME280;11493;43.344;26.226;2023-06-14T05:22:26;99090.66;;;18.76;100.00
22653;BME280;11493;43.344;26.226;2023-06-14T05:24:53;99090.66;;;19.02;99.93
22653;BME280;11493;43.344;26.226;2023-06-14T05:27:21;99101.75;;;19.25;98.60
22653;BME280;11493;43.344;26.226;2023-06-14T05:29:48;99093.03;;;19.30;97.65
22653;BME280;11493;43.344;26.226;2023-06-14T05:32:15;99105.97;;;19.45;97.84
22653;BME280;11493;43.344;26.226;2023-06-14T05:34:43;99098.13;;;19.54;96.88
22653;BME280;11493;43.344;26.226;2023-06-14T05:37:10;99104.22;;;19.63;96.21
22653;BME280;11493;43.344;26.226;2023-06-14T05:39:37;99113.34;;;19.60;95.58
22653;BME280;11493;43.344;26.226;2023-06-14T05:42:05;99109.47;;;19.68;95.98
22653;BME280;11493;43.344;26.226;2023-06-14T05:44:33;99120.09;;;19.89;94.41
22653;BME280;11493;43.344;26.226;2023-06-14T05:47:00;99123.06;;;20.11;92.95
22653;BME280;11493;43.344;26.226;2023-06-14T05:49:28;99125.56;;;20.19;92.76
22653;BME280;11493;43.344;26.226;2023-06-14T05:51:55;99110.88;;;20.29;92.19
22653;BME280;11493;43.344;26.226;2023-06-14T05:54:23;99115.84;;;20.43;92.20
22653;BME280;11493;43.344;26.226;2023-06-14T05:56:50;99124.72;;;20.52;91.44
22653;BME280;11493;43.344;26.226;2023-06-14T05:59:17;99126.28;;;20.50;91.34
22653;BME280;11493;43.344;26.226;2023-06-14T06:01:45;99110.69;;;20.49;91.58
22653;BME280;11493;43.344;26.226;2023-06-14T06:04:16;99131.69;;;20.76;90.42
22653;BME280;11493;43.344;26.226;2023-06-14T06:06:47;99131.38;;;20.92;89.86
22653;BME280;11493;43.344;26.226;2023-06-14T06:09:14;99129.06;;;21.01;88.74
22653;BME280;11493;43.344;26.226;2023-06-14T06:11:41;99124.34;;;21.16;87.54
22653;BME280;11493;43.344;26.226;2023-06-14T06:14:19;99128.41;;;21.22;87.95
22653;BME280;11493;43.344;26.226;2023-06-14T06:16:46;99128.81;;;21.24;87.54
22653;BME280;11493;43.344;26.226;2023-06-14T06:19:13;99114.69;;;21.03;89.13
22653;BME280;11493;43.344;26.226;2023-06-14T06:21:40;99128.72;;;21.10;88.51
22653;BME280;11493;43.344;26.226;2023-06-14T06:24:07;99140.47;;;21.29;88.42
22653;BME280;11493;43.344;26.226;2023-06-14T06:26:35;99139.31;;;21.41;87.41
22653;BME280;11493;43.344;26.226;2023-06-14T06:29:05;99140.56;;;21.58;84.88
22653;BME280;11493;43.344;26.226;2023-06-14T06:31:33;99144.59;;;21.64;85.05
22653;BME280;11493;43.344;26.226;2023-06-14T06:34:00;99145.00;;;21.62;86.03
22653;BME280;11493;43.344;26.226;2023-06-14T06:36:27;99148.66;;;21.74;84.37
22653;BME280;11493;43.344;26.226;2023-06-14T06:38:54;99161.09;;;21.87;84.04
22653;BME280;11493;43.344;26.226;2023-06-14T06:41:21;99165.16;;;22.00;82.79
22653;BME280;11493;43.344;26.226;2023-06-14T06:43:48;99159.59;;;22.07;83.41
22653;BME280;11493;43.344;26.226;2023-06-14T06:46:17;99164.03;;;22.15;82.20
22653;BME280;11493;43.344;26.226;2023-06-14T06:48:45;99170.84;;;22.32;81.94
22653;BME280;11493;43.344;26.226;2023-06-14T06:51:12;99163.25;;;22.36;82.08
22653;BME280;11493;43.344;26.226;2023-06-14T06:53:42;99173.28;;;22.41;82.81
22653;BME280;11493;43.344;26.226;2023-06-14T06:56:15;99165.66;;;22.45;80.79
22653;BME280;11493;43.344;26.226;2023-06-14T06:58:42;99144.03;;;22.42;80.19
22653;BME280;11493;43.344;26.226;2023-06-14T07:01:09;99155.28;;;22.59;80.33
22653;BME280;11493;43.344;26.226;2023-06-14T07:03:36;99153.28;;;22.67;81.05
22653;BME280;11493;43.344;26.226;2023-06-14T07:06:03;99151.28;;;22.71;80.64
22653;BME280;11493;43.344;26.226;2023-06-14T07:08:30;99153.31;;;22.81;80.18
22653;BME280;11493;43.344;26.226;2023-06-14T07:10:58;99152.91;;;22.83;81.01
22653;BME280;11493;43.344;26.226;2023-06-14T07:13:25;99156.53;;;22.87;80.39
22653;BME280;11493;43.344;26.226;2023-06-14T07:15:54;99160.53;;;22.82;78.68
22653;BME280;11493;43.344;26.226;2023-06-14T07:18:24;99150.09;;;22.79;78.76
22653;BME280;11493;43.344;26.226;2023-06-14T07:20:51;99152.06;;;23.04;76.96
22653;BME280;11493;43.344;26.226;2023-06-14T07:23:19;99162.06;;;23.19;75.00
22653;BME280;11493;43.344;26.226;2023-06-14T07:25:46;99156.88;;;23.03;74.85
22653;BME280;11493;43.344;26.226;2023-06-14T07:28:14;99161.25;;;23.22;73.27
22653;BME280;11493;43.344;26.226;2023-06-14T07:30:41;99151.66;;;23.19;73.01
22653;BME280;11493;43.344;26.226;2023-06-14T07:33:08;99159.25;;;23.33;73.01
22653;BME280;11493;43.344;26.226;2023-06-14T07:35:35;99151.19;;;23.39;71.26
22653;BME280;11493;43.344;26.226;2023-06-14T07:38:17;99143.56;;;23.43;71.97
22653;BME280;11493;43.344;26.226;2023-06-14T07:40:45;99141.53;;;23.50;70.75
22653;BME280;11493;43.344;26.226;2023-06-14T07:43:42;99152.78;;;23.61;68.77
22653;BME280;11493;43.344;26.226;2023-06-14T07:46:09;99143.16;;;23.44;70.27
22653;BME280;11493;43.344;26.226;2023-06-14T07:48:36;99119.50;;;23.45;70.34
22653;BME280;11493;43.344;26.226;2023-06-14T07:51:04;99146.34;;;23.68;69.34
22653;BME280;11493;43.344;26.226;2023-06-14T07:53:32;99139.53;;;23.65;70.75
22653;BME280;11493;43.344;26.226;2023-06-14T07:55:59;99144.78;;;23.56;71.52
22653;BME280;11493;43.344;26.226;2023-06-14T07:58:26;99145.53;;;23.71;71.84
22653;BME280;11493;43.344;26.226;2023-06-14T08:00:54;99141.09;;;23.70;72.62
22653;BME280;11493;43.344;26.226;2023-06-14T08:03:21;99149.16;;;23.61;72.57
22653;BME280;11493;43.344;26.226;2023-06-14T08:05:50;99145.53;;;23.67;73.09
22653;BME280;11493;43.344;26.226;2023-06-14T08:08:17;99146.34;;;23.68;72.37
22653;BME280;11493;43.344;26.226;2023-06-14T08:10:44;99143.91;;;23.73;72.48
22653;BME280;11493;43.344;26.226;2023-06-14T08:13:11;99154.25;;;23.87;71.48
22653;BME280;11493;43.344;26.226;2023-06-14T08:15:38;99147.47;;;23.77;70.74
22653;BME280;11493;43.344;26.226;2023-06-14T08:18:05;99153.94;;;23.74;70.55
22653;BME280;11493;43.344;26.226;2023-06-14T08:20:32;99151.19;;;23.49;69.89
22653;BME280;11493;43.344;26.226;2023-06-14T08:23:04;99147.16;;;23.47;70.16
22653;BME280;11493;43.344;26.226;2023-06-14T08:25:31;99145.59;;;23.35;67.91
22653;BME280;11493;43.344;26.226;2023-06-14T08:27:59;99156.41;;;23.44;69.47
22653;BME280;11493;43.344;26.226;2023-06-14T08:30:26;99136.78;;;23.33;69.21
22653;BME280;11493;43.344;26.226;2023-06-14T08:32:53;99153.97;;;23.49;70.21
22653;BME280;11493;43.344;26.226;2023-06-14T08:35:42;99142.41;;;23.30;70.59
22653;BME280;11493;43.344;26.226;2023-06-14T08:38:10;99142.81;;;23.21;69.71
22653;BME280;11493;43.344;26.226;2023-06-14T08:40:40;99133.16;;;23.40;70.44
22653;BME280;11493;43.344;26.226;2023-06-14T08:43:09;99142.28;;;23.76;69.82
22653;BME280;11493;43.344;26.226;2023-06-14T08:45:36;99139.34;;;23.97;68.01
22653;BME280;11493;43.344;26.226;2023-06-14T08:48:07;99142.09;;;24.11;66.68
22653;BME280;11493;43.344;26.226;2023-06-14T08:50:36;99149.72;;;24.11;66.28
22653;BME280;11493;43.344;26.226;2023-06-14T08:53:05;99141.63;;;24.23;66.48
22653;BME280;11493;43.344;26.226;2023-06-14T08:55:38;99131.47;;;24.44;65.86
22653;BME280;11493;43.344;26.226;2023-06-14T08:58:12;99138.88;;;24.68;65.16
22653;BME280;11493;43.344;26.226;2023-06-14T09:00:42;99143.13;;;24.90;65.81
22653;BME280;11493;43.344;26.226;2023-06-14T09:03:10;99143.06;;;25.01;66.14
22653;BME280;11493;43.344;26.226;2023-06-14T09:05:40;99146.56;;;25.12;64.90
22653;BME280;11493;43.344;26.226;2023-06-14T09:08:07;99127.81;;;24.99;65.51
22653;BME280;11493;43.344;26.226;2023-06-14T09:10:35;99116.28;;;24.79;65.02
22653;BME280;11493;43.344;26.226;2023-06-14T09:13:04;99147.69;;;24.74;65.64
22653;BME280;11493;43.344;26.226;2023-06-14T09:15:32;99136.16;;;24.57;66.74
22653;BME280;11493;43.344;26.226;2023-06-14T09:18:03;99138.56;;;24.59;67.23
22653;BME280;11493;43.344;26.226;2023-06-14T09:20:30;99141.72;;;24.68;67.55
22653;BME280;11493;43.344;26.226;2023-06-14T09:22:58;99141.22;;;24.77;66.06
22653;BME280;11493;43.344;26.226;2023-06-14T09:25:25;99137.63;;;24.76;67.52
22653;BME280;11493;43.344;26.226;2023-06-14T09:27:56;99143.13;;;24.90;67.90
22653;BME280;11493;43.344;26.226;2023-06-14T09:30:23;99134.13;;;25.10;66.47
22653;BME280;11493;43.344;26.226;2023-06-14T09:32:51;99131.44;;;25.33;66.51
22653;BME280;11493;43.344;26.226;2023-06-14T09:35:18;99134.06;;;25.51;64.43
22653;BME280;11493;43.344;26.226;2023-06-14T09:37:47;99139.97;;;25.64;64.14
22653;BME280;11493;43.344;26.226;2023-06-14T09:40:20;99138.38;;;25.63;64.08
22653;BME280;11493;43.344;26.226;2023-06-14T09:42:48;99133.09;;;25.68;64.10
22653;BME280;11493;43.344;26.226;2023-06-14T09:45:15;99139.91;;;25.71;61.46
22653;BME280;11493;43.344;26.226;2023-06-14T09:47:51;99137.97;;;25.61;62.80
22653;BME280;11493;43.344;26.226;2023-06-14T09:50:33;99128.50;;;25.81;63.75
22653;BME280;11493;43.344;26.226;2023-06-14T09:53:07;99136.13;;;26.11;61.89
22653;BME280;11493;43.344;26.226;2023-06-14T09:55:37;99132.19;;;26.05;60.47
22653;BME280;11493;43.344;26.226;2023-06-14T09:58:06;99141.19;;;25.97;61.35
22653;BME280;11493;43.344;26.226;2023-06-14T10:00:35;99134.00;;;25.92;60.91
22653;BME280;11493;43.344;26.226;2023-06-14T10:03:14;99134.50;;;25.83;61.55
22653;BME280;11493;43.344;26.226;2023-06-14T10:05:45;99127.75;;;25.77;62.11
22653;BME280;11493;43.344;26.226;2023-06-14T10:08:16;99138.22;;;25.77;63.38
22653;BME280;11493;43.344;26.226;2023-06-14T10:10:45;99147.41;;;25.47;63.24
22653;BME280;11493;43.344;26.226;2023-06-14T10:13:13;99139.59;;;25.62;65.73
22653;BME280;11493;43.344;26.226;2023-06-14T10:21:18;99128.84;;;25.49;62.95
22653;BME280;11493;43.344;26.226;2023-06-14T10:23:49;99125.69;;;25.44;62.52
22653;BME280;11493;43.344;26.226;2023-06-14T10:26:22;99121.63;;;25.48;63.23
22653;BME280;11493;43.344;26.226;2023-06-14T10:28:59;99119.75;;;25.72;62.58
22653;BME280;11493;43.344;26.226;2023-06-14T10:31:46;99125.31;;;26.06;61.70
22653;BME280;11493;43.344;26.226;2023-06-14T10:34:24;99112.50;;;26.32;61.26
22653;BME280;11493;43.344;26.226;2023-06-14T10:37:05;99116.63;;;26.51;59.83
22653;BME280;11493;43.344;26.226;2023-06-14T10:39:39;99114.09;;;26.30;61.01
22653;BME280;11493;43.344;26.226;2023-06-14T10:42:08;99116.72;;;26.17;60.30
22653;BME280;11493;43.344;26.226;2023-06-14T10:47:19;99118.47;;;26.07;59.90
22653;BME280;11493;43.344;26.226;2023-06-14T10:52:27;99109.25;;;26.03;59.86
22653;BME280;11493;43.344;26.226;2023-06-14T10:55:16;99121.88;;;25.95;59.31
22653;BME280;11493;43.344;26.226;2023-06-14T10:57:52;99112.72;;;26.14;60.98
22653;BME280;11493;43.344;26.226;2023-06-14T11:00:24;99122.00;;;26.42;59.52
22653;BME280;11493;43.344;26.226;2023-06-14T11:05:51;99108.03;;;26.04;59.85
22653;BME280;11493;43.344;26.226;2023-06-14T11:11:31;99112.88;;;26.04;60.13
22653;BME280;11493;43.344;26.226;2023-06-14T11:14:01;99124.56;;;25.75;61.14
22653;BME280;11493;43.344;26.226;2023-06-14T11:16:30;99117.03;;;25.62;60.87
22653;BME280;11493;43.344;26.226;2023-06-14T11:19:01;99122.91;;;25.78;62.35
22653;BME280;11493;43.344;26.226;2023-06-14T11:21:32;99113.28;;;25.75;62.12
22653;BME280;11493;43.344;26.226;2023-06-14T11:24:00;99109.66;;;25.75;62.63
22653;BME280;11493;43.344;26.226;2023-06-14T11:26:29;99120.00;;;25.85;61.82
22653;BME280;11493;43.344;26.226;2023-06-14T11:28:59;99117.13;;;25.89;61.84
22653;BME280;11493;43.344;26.226;2023-06-14T11:31:27;99122.63;;;25.99;61.93
22653;BME280;11493;43.344;26.226;2023-06-14T11:33:56;99111.41;;;25.96;61.26
22653;BME280;11493;43.344;26.226;2023-06-14T11:36:28;99117.94;;;25.89;64.14
22653;BME280;11493;43.344;26.226;2023-06-14T11:39:02;99116.38;;;25.84;61.42
22653;BME280;11493;43.344;26.226;2023-06-14T11:41:37;99111.78;;;25.64;62.57
22653;BME280;11493;43.344;26.226;2023-06-14T11:44:06;99113.00;;;25.63;63.59
22653;BME280;11493;43.344;26.226;2023-06-14T11:46:34;99115.75;;;25.70;63.96
22653;BME280;11493;43.344;26.226;2023-06-14T11:49:03;99114.84;;;25.80;62.04
22653;BME280;11493;43.344;26.226;2023-06-14T11:51:35;99107.50;;;25.86;62.11
22653;BME280;11493;43.344;26.226;2023-06-14T11:54:03;99104.69;;;25.86;62.85
22653;BME280;11493;43.344;26.226;2023-06-14T11:56:31;99094.72;;;25.78;63.78
22653;BME280;11493;43.344;26.226;2023-06-14T11:58:59;99104.22;;;25.91;61.88
22653;BME280;11493;43.344;26.226;2023-06-14T12:01:30;99084.81;;;25.66;61.65
22653;BME280;11493;43.344;26.226;2023-06-14T12:03:58;99101.97;;;25.79;62.35
22653;BME280;11493;43.344;26.226;2023-06-14T12:06:28;99095.91;;;25.80;61.48
22653;BME280;11493;43.344;26.226;2023-06-14T12:08:56;99094.31;;;25.79;62.15
22653;BME280;11493;43.344;26.226;2023-06-14T12:11:24;99106.84;;;25.75;62.01
22653;BME280;11493;43.344;26.226;2023-06-14T12:13:56;99101.72;;;25.63;62.30
22653;BME280;11493;43.344;26.226;2023-06-14T12:16:30;99090.03;;;25.68;63.69
22653;BME280;11493;43.344;26.226;2023-06-14T12:19:00;99083.13;;;25.72;63.46
22653;BME280;11493;43.344;26.226;2023-06-14T12:21:27;99101.06;;;25.85;62.56
22653;BME280;11493;43.344;26.226;2023-06-14T12:23:55;99095.28;;;25.96;62.63
22653;BME280;11493;43.344;26.226;2023-06-14T12:26:24;99094.44;;;25.99;62.54
22653;BME280;11493;43.344;26.226;2023-06-14T12:28:52;99090.25;;;26.07;60.79
22653;BME280;11493;43.344;26.226;2023-06-14T12:31:19;99080.63;;;26.05;61.12
22653;BME280;11493;43.344;26.226;2023-06-14T12:33:46;99075.63;;;26.16;61.25
22653;BME280;11493;43.344;26.226;2023-06-14T12:36:16;99072.72;;;26.23;62.12
22653;BME280;11493;43.344;26.226;2023-06-14T12:38:43;99081.28;;;26.43;60.38
22653;BME280;11493;43.344;26.226;2023-06-14T12:41:10;99070.47;;;26.11;60.00
22653;BME280;11493;43.344;26.226;2023-06-14T12:43:37;99082.28;;;26.29;60.41
22653;BME280;11493;43.344;26.226;2023-06-14T12:46:04;99078.09;;;26.41;59.82
22653;BME280;11493;43.344;26.226;2023-06-14T12:48:32;99079.94;;;26.51;59.09
22653;BME280;11493;43.344;26.226;2023-06-14T12:51:00;99077.50;;;26.53;59.54
22653;BME280;11493;43.344;26.226;2023-06-14T12:53:28;99074.44;;;26.67;60.29
22653;BME280;11493;43.344;26.226;2023-06-14T12:55:55;99076.41;;;26.70;58.36
22653;BME280;11493;43.344;26.226;2023-06-14T12:58:22;99068.56;;;26.78;57.85
22653;BME280;11493;43.344;26.226;2023-06-14T13:00:50;99058.81;;;26.82;59.30
22653;BME280;11493;43.344;26.226;2023-06-14T13:03:18;99057.41;;;26.94;58.97
22653;BME280;11493;43.344;26.226;2023-06-14T13:05:45;99061.34;;;27.00;60.11
22653;BME280;11493;43.344;26.226;2023-06-14T13:08:13;99072.72;;;26.97;57.40
22653;BME280;11493;43.344;26.226;2023-06-14T13:10:40;99066.63;;;26.98;58.04
22653;BME280;11493;43.344;26.226;2023-06-14T13:13:08;99064.91;;;27.04;58.04
22653;BME280;11493;43.344;26.226;2023-06-14T13:15:35;99056.44;;;26.81;57.91